createdAt,value
2018-02-04T00:01:31.455Z,62.40
2018-02-04T00:04:03.882Z,62.67
2018-02-04T00:06:33.628Z,62.76
2018-02-04T00:09:05.713Z,62.54
2018-02-04T00:11:35.450Z,62.80
2018-02-04T00:14:09.030Z,62.44
2018-02-04T00:16:39.068Z,62.48
2018-02-04T00:19:12.576Z,62.39
2018-02-04T00:21:42.888Z,62.52
2018-02-04T00:24:12.398Z,62.12
2018-02-04T00:26:49.827Z,61.45
2018-02-04T00:29:20.321Z,62.05
2018-02-04T00:31:53.918Z,62.58
2018-02-04T00:34:25.641Z,63.28
2018-02-04T00:36:58.377Z,63.09
2018-02-04T00:39:28.721Z,63.33
2018-02-04T00:42:01.927Z,63.74
2018-02-04T00:44:38.716Z,63.53
2018-02-04T00:47:08.117Z,63.55
2018-02-04T00:49:38.461Z,64.05
2018-02-04T00:52:11.895Z,63.65
2018-02-04T00:54:45.526Z,62.40
2018-02-04T00:57:17.232Z,61.95
2018-02-04T00:59:50.498Z,62.12
2018-02-04T01:02:25.243Z,62.32
2018-02-04T01:04:55.587Z,62.46
2018-02-04T01:07:25.176Z,62.02
2018-02-04T01:09:57.172Z,61.42
2018-02-04T01:12:29.250Z,61.96
2018-02-04T01:14:59.491Z,62.32
2018-02-04T01:17:32.358Z,62.06
2018-02-04T01:20:01.769Z,62.12
2018-02-04T01:22:31.241Z,62.11
2018-02-04T01:25:00.813Z,62.62
2018-02-04T01:27:33.685Z,63.46
2018-02-04T01:30:03.225Z,63.29
2018-02-04T01:32:36.418Z,63.03
2018-02-04T01:35:12.326Z,63.19
2018-02-04T01:37:54.783Z,63.86
2018-02-04T01:40:33.105Z,64.51
2018-02-04T01:43:02.535Z,64.41
2018-02-04T01:45:34.103Z,63.83
2018-02-04T01:48:17.414Z,63.27
2018-02-04T01:53:45.382Z,62.52
2018-02-04T01:56:20.518Z,63.10
2018-02-04T01:59:06.503Z,63.99
2018-02-04T02:01:42.455Z,64.06
2018-02-04T02:04:26.132Z,63.32
2018-02-04T02:06:55.523Z,63.20
2018-02-04T02:09:38.587Z,61.75
2018-02-04T02:14:48.281Z,62.07
2018-02-04T02:17:22.696Z,62.09
2018-02-04T02:19:58.945Z,62.85
2018-02-04T02:22:28.453Z,63.19
2018-02-04T02:24:58.113Z,62.65
2018-02-04T02:27:27.524Z,62.97
2018-02-04T02:29:56.967Z,63.67
2018-02-04T02:32:29.324Z,62.73
2018-02-04T02:34:59.499Z,62.66
2018-02-04T02:37:44.938Z,62.45
2018-02-04T02:43:44.690Z,63.32
2018-02-04T02:46:18.861Z,63.18
2018-02-04T02:48:51.319Z,62.52
2018-02-04T02:55:00.809Z,63.56
2018-02-04T02:57:37.384Z,62.59
2018-02-04T03:00:06.783Z,63.41
2018-02-04T03:02:37.649Z,63.87
2018-02-04T03:05:10.335Z,63.22
2018-02-04T03:07:39.919Z,63.34
2018-02-04T03:10:13.251Z,63.18
2018-02-04T03:12:46.754Z,63.73
2018-02-04T03:15:19.413Z,63.11
2018-02-04T03:18:03.320Z,62.59
2018-02-04T03:20:32.988Z,63.77
2018-02-04T03:23:02.780Z,63.27
2018-02-04T03:25:33.226Z,63.26
2018-02-04T03:28:10.092Z,63.50
2018-02-04T03:30:48.889Z,63.54
2018-02-04T03:33:18.471Z,63.76
2018-02-04T03:38:58.868Z,62.78
2018-02-04T03:41:28.258Z,63.18
2018-02-04T03:43:57.651Z,62.68
2018-02-04T03:49:08.140Z,62.99
2018-02-04T03:51:40.539Z,62.38
2018-02-04T03:54:13.601Z,62.84
2018-02-04T03:56:43.066Z,62.87
2018-02-04T03:59:20.296Z,62.53
2018-02-04T04:01:49.676Z,62.47
2018-02-04T04:04:23.348Z,62.73
2018-02-04T04:06:57.140Z,62.99
2018-02-04T04:09:37.973Z,62.52
2018-02-04T04:12:20.491Z,62.93
2018-02-04T04:14:53.238Z,62.29
2018-02-04T04:17:28.424Z,62.90
2018-02-04T04:20:06.610Z,63.31
2018-02-04T04:22:53.248Z,63.82
2018-02-04T04:25:22.689Z,64.14
2018-02-04T04:27:52.124Z,62.38
2018-02-04T04:30:26.584Z,62.83
2018-02-04T04:32:56.537Z,62.53
2018-02-04T04:35:28.682Z,62.18
2018-02-04T04:37:58.175Z,62.66
2018-02-04T04:40:27.603Z,62.89
2018-02-04T04:42:57.235Z,62.20
2018-02-04T04:45:26.765Z,62.98
2018-02-04T04:47:56.536Z,63.77
2018-02-04T04:50:30.428Z,62.67
2018-02-04T04:53:08.040Z,62.34
2018-02-04T04:55:37.727Z,63.08
2018-02-04T04:58:20.264Z,63.51
2018-02-04T23:48:46.952Z,63.63
